Time;durP1;ratioP1;P1;durP2;ratioP2;P2;SDS_P1;SDS_P2;PMS_P1;PMS_P2;Temp;Humidity;BMP_temperature;BMP_pressure;BME280_temperature;BME280_humidity;BME280_pressure;Samples;Min_cycle;Max_cycle;Signal;HPM_P1;HPM_P2
2022/06/03 00:00:10;;;;;;;;;;;;;;;-143.90;100.00;55127.09;3047624;19;19915;-61
2022/06/03 00:01:20;;;;;;;;;;;;;;;-143.90;100.00;55150.94;3047578;19;20691;-61
2022/06/03 00:02:31;;;;;;;;;;;;;;;-143.90;100.00;55170.78;3046124;19;19922;-61
2022/06/03 00:03:39;;;;;;;;;;;;;;;-143.90;100.00;55162.84;3047045;19;19911;-61
2022/06/03 00:04:48;;;;;;;;;;;;;;;-143.90;100.00;55162.84;3047217;19;19933;-61
2022/06/03 00:05:55;;;;;;;;;;;;;;;-143.90;100.00;55146.97;3045849;19;19922;-61
2022/06/03 00:07:31;;;;;;;;;;;;;;;-143.90;100.00;55160.84;3044327;19;19922;-61
2022/06/03 00:08:38;;;;;;;;;;;;;;;-143.90;100.00;55166.81;3045391;19;19952;-60
2022/06/03 00:09:53;;;;;;;;;;;;;;;-143.90;100.00;55168.81;3044741;19;19926;-61
2022/06/03 00:11:13;;;;;;;;;;;;;;;-143.90;100.00;55143.00;3045575;19;19918;-61
2022/06/03 00:12:14;;;;;;;;;;;;;;;-143.90;100.00;55214.47;3050452;19;19923;-61
2022/06/03 00:13:33;;;;;;;;;;;;;;;-143.90;100.00;55162.84;3048919;19;20352;-62
2022/06/03 00:14:34;;;;;;;;;;;;;;;-143.90;100.00;55139.03;3048273;19;19935;-61
2022/06/03 00:15:41;;;;;;;;;;;;;;;-143.90;100.00;55131.06;3048459;19;20394;-61
2022/06/03 00:16:50;;;;;;;;;;;;;;;-143.90;100.00;55186.69;3049335;19;20330;-61
2022/06/03 00:17:55;;;;;;;;;;;;;;;-143.90;100.00;55129.09;3046671;19;19926;-62
2022/06/03 00:19:03;;;;;;;;;;;;;;;-143.90;100.00;55168.81;3045531;19;19930;-61
2022/06/03 00:20:24;;;;;;;;;;;;;;;-143.90;100.00;55162.84;3047011;19;19957;-62
2022/06/03 00:21:34;;;;;;;;;;;;;;;-143.90;100.00;55176.75;3044307;19;19946;-61
2022/06/03 00:22:41;;;;;;;;;;;;;;;-143.90;100.00;55162.84;3048761;19;19923;-62
2022/06/03 00:23:41;;;;;;;;;;;;;;;-143.90;100.00;55127.09;3047642;19;19915;-60
2022/06/03 00:24:51;;;;;;;;;;;;;;;-143.90;100.00;55162.84;3045328;19;20267;-61
2022/06/03 00:25:58;;;;;;;;;;;;;;;-143.90;100.00;55184.69;3050060;19;19926;-62
2022/06/03 00:27:08;;;;;;;;;;;;;;;-143.90;100.00;55186.69;3047837;19;19918;-62
2022/06/03 00:28:15;;;;;;;;;;;;;;;-143.90;100.00;55174.75;3046877;19;20394;-61
2022/06/03 00:29:16;;;;;;;;;;;;;;;-143.90;100.00;55135.03;3049025;19;20724;-62
2022/06/03 00:30:27;;;;;;;;;;;;;;;-143.90;100.00;55170.78;3044508;19;19914;-62
2022/06/03 00:31:37;;;;;;;;;;;;;;;-143.90;100.00;55162.84;3045116;19;19922;-62
2022/06/03 00:32:41;;;;;;;;;;;;;;;-143.90;100.00;55166.81;3047900;19;19982;-61
2022/06/03 00:33:45;;;;;;;;;;;;;;;-143.90;100.00;55119.16;3048267;19;20343;-62
2022/06/03 00:34:48;;;;;;;;;;;;;;;-143.90;100.00;55146.97;3046502;19;20296;-61
2022/06/03 00:35:50;;;;;;;;;;;;;;;-143.90;100.00;55172.78;3047803;19;19923;-62
2022/06/03 00:37:10;;;;;;;;;;;;;;;-143.90;100.00;55143.00;3044991;19;20761;-60
2022/06/03 00:38:17;;;;;;;;;;;;;;;-143.90;100.00;55135.03;3046114;19;19919;-62
2022/06/03 00:39:32;;;;;;;;;;;;;;;-143.90;100.00;55150.94;3045207;19;20438;-62
2022/06/03 00:40:33;;;;;;;;;;;;;;;-143.90;100.00;55137.03;3048488;19;20692;-62
2022/06/03 00:41:39;;;;;;;;;;;;;;;-143.90;100.00;55158.88;3044794;19;20345;-62
2022/06/03 00:42:43;;;;;;;;;;;;;;;-143.90;100.00;55137.03;3046909;19;19933;-62
2022/06/03 00:43:46;;;;;;;;;;;;;;;-143.90;100.00;55148.94;3050120;19;19919;-62
2022/06/03 00:44:53;;;;;;;;;;;;;;;-143.90;100.00;55150.94;3046504;19;19925;-61
2022/06/03 00:46:04;;;;;;;;;;;;;;;-143.90;100.00;55162.84;3046221;19;19923;-62
2022/06/03 00:47:06;;;;;;;;;;;;;;;-143.90;100.00;55150.94;3047871;19;19923;-62
2022/06/03 00:48:22;;;;;;;;;;;;;;;-143.90;100.00;55162.84;3047375;19;19930;-61
2022/06/03 00:49:23;;;;;;;;;;;;;;;-143.90;100.00;55156.88;3046398;19;19922;-62
2022/06/03 00:50:53;;;;;;;;;;;;;;;-143.90;100.00;55146.97;3048616;19;19929;-62
2022/06/03 00:52:00;;;;;;;;;;;;;;;-143.90;100.00;55154.91;3043787;19;19928;-61
2022/06/03 00:53:13;;;;;;;;;;;;;;;-143.90;100.00;55150.94;3046396;19;19919;-62
2022/06/03 00:54:24;;;;;;;;;;;;;;;-143.90;100.00;55131.06;3047012;19;19942;-61
2022/06/03 00:55:34;;;;;;;;;;;;;;;-143.90;100.00;55143.00;3046395;19;19942;-62
2022/06/03 00:56:53;;;;;;;;;;;;;;;-143.90;100.00;55099.31;3048275;19;19926;-62
2022/06/03 00:57:57;;;;;;;;;;;;;;;-143.90;100.00;55186.69;3048490;19;20577;-62
2022/06/03 00:59:01;;;;;;;;;;;;;;;-143.90;100.00;55178.72;3045991;19;19933;-61
2022/06/03 01:00:01;;;;;;;;;;;;;;;-143.90;100.00;55141.00;3046448;19;19919;-61
2022/06/03 01:01:12;;;;;;;;;;;;;;;-143.90;100.00;55170.78;3046882;19;19926;-62
2022/06/03 01:02:14;;;;;;;;;;;;;;;-143.90;100.00;55166.81;3046239;19;19927;-61
2022/06/03 01:03:15;;;;;;;;;;;;;;;-143.90;100.00;55127.09;3047123;19;19941;-62
2022/06/03 01:04:36;;;;;;;;;;;;;;;-143.90;100.00;55154.91;3048091;19;19914;-62
2022/06/03 01:05:39;;;;;;;;;;;;;;;-143.90;100.00;55154.91;3044852;19;19959;-61
2022/06/03 01:07:15;;;;;;;;;;;;;;;-143.90;100.00;55174.75;3046487;19;19919;-62
2022/06/03 01:08:35;;;;;;;;;;;;;;;-143.90;100.00;55150.94;3044645;19;20349;-62
2022/06/03 01:09:55;;;;;;;;;;;;;;;-143.90;100.00;55150.94;3045453;19;19930;-62
2022/06/03 01:10:56;;;;;;;;;;;;;;;-143.90;100.00;55162.84;3044923;19;19926;-62
2022/06/03 01:12:29;;;;;;;;;;;;;;;-143.90;100.00;55137.03;3048689;19;19914;-62
2022/06/03 01:13:39;;;;;;;;;;;;;;;-143.90;100.00;55146.97;3044279;19;20525;-62
2022/06/03 01:14:39;;;;;;;;;;;;;;;-143.90;100.00;55186.69;3047121;19;19943;-62
2022/06/03 01:15:49;;;;;;;;;;;;;;;-143.90;100.00;55174.75;3048024;19;19926;-61
2022/06/03 01:16:59;;;;;;;;;;;;;;;-143.90;100.00;55152.91;3047091;19;19997;-62
2022/06/03 01:18:00;;;;;;;;;;;;;;;-143.90;100.00;55170.78;3044619;19;19919;-58
2022/06/03 01:19:20;;;;;;;;;;;;;;;-143.90;100.00;55166.81;3047195;19;20537;-61
2022/06/03 01:20:30;;;;;;;;;;;;;;;-143.90;100.00;55170.78;3048789;19;19930;-60
2022/06/03 01:21:49;;;;;;;;;;;;;;;-143.90;100.00;55129.09;3044130;19;19926;-62
2022/06/03 01:22:56;;;;;;;;;;;;;;;-143.90;100.00;55135.03;3044635;19;20489;-62
2022/06/03 01:24:00;;;;;;;;;;;;;;;-143.90;100.00;55158.88;3048163;19;19942;-62
2022/06/03 01:25:04;;;;;;;;;;;;;;;-143.90;100.00;55143.00;3053857;19;19926;-62
2022/06/03 01:26:10;;;;;;;;;;;;;;;-143.90;100.00;55143.00;3049524;19;20417;-62
2022/06/03 01:27:14;;;;;;;;;;;;;;;-143.90;100.00;55127.09;3054220;19;19934;-62
2022/06/03 01:28:26;;;;;;;;;;;;;;;-143.90;100.00;55152.91;3052534;19;19986;-61
2022/06/03 01:29:39;;;;;;;;;;;;;;;-143.90;100.00;55143.00;3051981;19;19915;-61
2022/06/03 01:30:43;;;;;;;;;;;;;;;-143.90;100.00;55115.19;3052046;19;20247;-62
2022/06/03 01:32:02;;;;;;;;;;;;;;;-143.90;100.00;55150.94;3052857;19;19927;-63
2022/06/03 01:33:03;;;;;;;;;;;;;;;-143.90;100.00;55158.88;3050562;19;19922;-60
2022/06/03 01:34:22;;;;;;;;;;;;;;;-143.90;100.00;55150.94;3051041;19;19921;-61
2022/06/03 01:35:41;;;;;;;;;;;;;;;-143.90;100.00;55166.81;3053160;19;20318;-61
2022/06/03 01:36:42;;;;;;;;;;;;;;;-143.90;100.00;55143.00;3054625;19;19934;-60
2022/06/03 01:37:54;;;;;;;;;;;;;;;-143.90;100.00;55166.81;3050203;19;19929;-62
2022/06/03 01:39:06;;;;;;;;;;;;;;;-143.90;100.00;55125.13;3053783;19;20274;-62
2022/06/03 01:40:17;;;;;;;;;;;;;;;-143.90;100.00;55150.94;3053757;19;19922;-60
2022/06/03 01:41:24;;;;;;;;;;;;;;;-143.90;100.00;55162.84;3050526;19;20406;-61
2022/06/03 01:42:28;;;;;;;;;;;;;;;-143.90;100.00;55150.94;3055312;19;19930;-62
2022/06/03 01:43:31;;;;;;;;;;;;;;;-143.90;100.00;55127.09;3054703;19;20310;-62
2022/06/03 01:44:32;;;;;;;;;;;;;;;-143.90;100.00;55158.88;3051495;19;19918;-62
2022/06/03 01:45:46;;;;;;;;;;;;;;;-143.90;100.00;55141.00;3045908;19;20334;-62
2022/06/03 01:46:50;;;;;;;;;;;;;;;-143.90;100.00;55166.81;3049585;19;19919;-61
2022/06/03 01:48:03;;;;;;;;;;;;;;;-143.90;100.00;55166.81;3051433;19;19926;-62
2022/06/03 01:49:11;;;;;;;;;;;;;;;-143.90;100.00;55135.03;3054668;19;19923;-61
2022/06/03 01:50:27;;;;;;;;;;;;;;;-143.90;100.00;55150.94;3053889;19;19918;-62
2022/06/03 01:51:40;;;;;;;;;;;;;;;-143.90;100.00;55146.97;3051924;19;19951;-62
2022/06/03 01:53:02;;;;;;;;;;;;;;;-143.90;100.00;55125.13;3051691;19;20255;-62
2022/06/03 01:54:22;;;;;;;;;;;;;;;-143.90;100.00;55146.97;3054512;19;19923;-60
2022/06/03 01:55:30;;;;;;;;;;;;;;;-143.90;100.00;55190.66;3053621;19;19937;-62
2022/06/03 01:56:38;;;;;;;;;;;;;;;-143.90;100.00;55133.06;3054146;19;19922;-61
2022/06/03 01:57:46;;;;;;;;;;;;;;;-143.90;100.00;55135.03;3052901;19;19946;-62
2022/06/03 01:58:59;;;;;;;;;;;;;;;-143.90;100.00;55131.06;3052351;19;19925;-61
2022/06/03 02:00:09;;;;;;;;;;;;;;;-143.90;100.00;55158.88;3051594;19;20389;-62
2022/06/03 02:01:12;;;;;;;;;;;;;;;-143.90;100.00;55139.03;3052295;19;19950;-62
2022/06/03 02:02:19;;;;;;;;;;;;;;;-143.90;100.00;55085.41;3053480;19;20000;-62
2022/06/03 02:03:32;;;;;;;;;;;;;;;-143.90;100.00;55143.00;3051510;19;19938;-62
2022/06/03 02:04:35;;;;;;;;;;;;;;;-143.90;100.00;55135.03;3052492;19;19926;-62
2022/06/03 02:05:55;;;;;;;;;;;;;;;-143.90;100.00;55154.91;3053455;19;20445;-62
2022/06/03 02:07:14;;;;;;;;;;;;;;;-143.90;100.00;55119.16;3053526;19;19952;-62
2022/06/03 02:08:15;;;;;;;;;;;;;;;-143.90;100.00;55146.97;3053207;19;20764;-62
2022/06/03 02:09:25;;;;;;;;;;;;;;;-143.90;100.00;55168.81;3051912;19;20316;-61
2022/06/03 02:10:29;;;;;;;;;;;;;;;-143.90;100.00;55131.06;3054181;19;19938;-62
2022/06/03 02:11:33;;;;;;;;;;;;;;;-143.90;100.00;55139.03;3052391;19;19922;-62
2022/06/03 02:12:41;;;;;;;;;;;;;;;-143.90;100.00;55150.94;3055756;19;19930;-62
2022/06/03 02:13:42;;;;;;;;;;;;;;;-143.90;100.00;55144.97;3050418;19;20001;-62
2022/06/03 02:14:58;;;;;;;;;;;;;;;-143.90;100.00;55141.00;3052746;19;19923;-61
2022/06/03 02:15:59;;;;;;;;;;;;;;;-143.90;100.00;55146.97;3054956;19;20473;-62
2022/06/03 02:17:06;;;;;;;;;;;;;;;-143.90;100.00;55139.03;3053291;19;20263;-62
2022/06/03 02:18:33;;;;;;;;;;;;;;;-143.90;100.00;55125.13;3051384;19;19949;-62
2022/06/03 02:19:34;;;;;;;;;;;;;;;-143.90;100.00;55131.06;3052567;19;19990;-62
2022/06/03 02:20:53;;;;;;;;;;;;;;;-143.90;100.00;55123.13;3053223;19;19927;-61
2022/06/03 02:22:14;;;;;;;;;;;;;;;-143.90;100.00;55158.88;3053925;19;19946;-61
2022/06/03 02:23:21;;;;;;;;;;;;;;;-143.90;100.00;55123.13;3052019;19;20507;-62
2022/06/03 02:24:25;;;;;;;;;;;;;;;-143.90;100.00;55166.81;3050918;19;19926;-59
2022/06/03 02:25:41;;;;;;;;;;;;;;;-143.90;100.00;55166.81;3054856;19;19918;-62
2022/06/03 02:27:00;;;;;;;;;;;;;;;-143.90;100.00;55150.94;3054931;19;19936;-61
2022/06/03 02:28:04;;;;;;;;;;;;;;;-143.90;100.00;55135.03;3053149;19;19926;-62
2022/06/03 02:30:30;;;;;;;;;;;;;;;-143.90;100.00;55166.81;3054624;19;19970;-62
2022/06/03 02:31:51;;;;;;;;;;;;;;;-143.90;100.00;55148.94;3053768;19;19918;-61
2022/06/03 02:32:54;;;;;;;;;;;;;;;-143.90;100.00;55178.72;3051277;19;19922;-61
2022/06/03 02:34:01;;;;;;;;;;;;;;;-143.90;100.00;55162.84;3052964;19;19933;-62
2022/06/03 02:35:20;;;;;;;;;;;;;;;-143.90;100.00;55158.88;3053554;19;19931;-61
2022/06/03 02:36:36;;;;;;;;;;;;;;;-143.90;100.00;55135.03;3050363;19;20817;-62
2022/06/03 02:37:49;;;;;;;;;;;;;;;-143.90;100.00;55150.94;3050699;19;19922;-61
2022/06/03 02:38:56;;;;;;;;;;;;;;;-143.90;100.00;55170.78;3051655;19;19922;-62
2022/06/03 02:39:57;;;;;;;;;;;;;;;-143.90;100.00;55139.03;3052577;19;21781;-62
2022/06/03 02:41:01;;;;;;;;;;;;;;;-143.90;100.00;55144.97;3047311;19;19926;-62
2022/06/03 02:42:11;;;;;;;;;;;;;;;-143.90;100.00;55121.16;3051652;19;21916;-62
2022/06/03 02:43:21;;;;;;;;;;;;;;;-143.90;100.00;55135.03;3052255;19;19978;-62
2022/06/03 02:44:25;;;;;;;;;;;;;;;-143.90;100.00;55127.09;3051044;19;19926;-62
2022/06/03 02:45:25;;;;;;;;;;;;;;;-143.90;100.00;55184.69;3051831;19;19935;-62
2022/06/03 02:46:45;;;;;;;;;;;;;;;-143.90;100.00;55143.00;3052981;19;20693;-62
2022/06/03 02:47:55;;;;;;;;;;;;;;;-143.90;100.00;55148.94;3051057;19;19919;-62
2022/06/03 02:49:14;;;;;;;;;;;;;;;-143.90;100.00;55143.00;3049796;19;19926;-59
2022/06/03 02:50:18;;;;;;;;;;;;;;;-143.90;100.00;55123.13;3047460;19;20462;-61
2022/06/03 02:51:33;;;;;;;;;;;;;;;-143.90;100.00;55154.91;3050450;19;19938;-61
2022/06/03 02:52:47;;;;;;;;;;;;;;;-143.90;100.00;55129.09;3051834;19;19925;-62
2022/06/03 02:54:08;;;;;;;;;;;;;;;-143.90;100.00;55137.03;3046420;19;19923;-62
2022/06/03 02:55:09;;;;;;;;;;;;;;;-143.90;100.00;55158.88;3048662;19;19935;-61
2022/06/03 02:56:12;;;;;;;;;;;;;;;-143.90;100.00;55107.25;3052220;19;20542;-61
2022/06/03 02:57:16;;;;;;;;;;;;;;;-143.90;100.00;55121.16;3047222;19;19922;-63
2022/06/03 02:58:28;;;;;;;;;;;;;;;-143.90;100.00;55127.09;3051085;19;19926;-61
2022/06/03 02:59:35;;;;;;;;;;;;;;;-143.90;100.00;55154.91;3051702;19;20754;-62
2022/06/03 03:00:45;;;;;;;;;;;;;;;-143.90;100.00;55111.22;3047627;19;19949;-61
2022/06/03 03:01:59;;;;;;;;;;;;;;;-143.90;100.00;55146.97;3049125;19;19954;-62
2022/06/03 03:03:13;;;;;;;;;;;;;;;-143.90;100.00;55127.09;3048720;19;19928;-62
2022/06/03 03:04:17;;;;;;;;;;;;;;;-143.90;100.00;55158.88;3050558;19;20029;-62
2022/06/03 03:05:21;;;;;;;;;;;;;;;-143.90;100.00;55135.03;3045954;19;19931;-62
2022/06/03 03:06:35;;;;;;;;;;;;;;;-143.90;100.00;55154.91;3051711;19;20618;-61
2022/06/03 03:07:35;;;;;;;;;;;;;;;-143.90;100.00;55101.28;3052493;19;19930;-62
2022/06/03 03:08:55;;;;;;;;;;;;;;;-143.90;100.00;55133.06;3048906;19;19925;-61
2022/06/03 03:10:14;;;;;;;;;;;;;;;-143.90;100.00;55123.13;3047167;19;20036;-61
2022/06/03 03:11:17;;;;;;;;;;;;;;;-143.90;100.00;55127.09;3049272;19;19966;-62
2022/06/03 03:12:37;;;;;;;;;;;;;;;-143.90;100.00;55166.81;3049728;19;19955;-62
2022/06/03 03:13:57;;;;;;;;;;;;;;;-143.90;100.00;55146.97;3048282;19;20659;-61
2022/06/03 03:14:57;;;;;;;;;;;;;;;-143.90;100.00;55158.88;3048758;19;20960;-61
2022/06/03 03:16:09;;;;;;;;;;;;;;;-143.90;100.00;55125.13;3050182;19;19953;-61
2022/06/03 03:17:25;;;;;;;;;;;;;;;-143.90;100.00;55154.91;3050663;19;19915;-61
2022/06/03 03:18:35;;;;;;;;;;;;;;;-143.90;100.00;55150.94;3050323;19;20346;-61
2022/06/03 03:19:39;;;;;;;;;;;;;;;-143.90;100.00;55154.91;3051603;19;20331;-62
2022/06/03 03:20:45;;;;;;;;;;;;;;;-143.90;100.00;55111.22;3051316;19;19927;-62
2022/06/03 03:21:49;;;;;;;;;;;;;;;-143.90;100.00;55133.06;3046752;19;20102;-61
2022/06/03 03:22:53;;;;;;;;;;;;;;;-143.90;100.00;55154.91;3051876;19;19922;-61
2022/06/03 03:24:06;;;;;;;;;;;;;;;-143.90;100.00;55143.00;3050758;19;19962;-62
2022/06/03 03:25:07;;;;;;;;;;;;;;;-143.90;100.00;55123.13;3047716;19;19939;-62
2022/06/03 03:26:14;;;;;;;;;;;;;;;-143.90;100.00;55144.97;3049986;19;19990;-62
2022/06/03 03:27:27;;;;;;;;;;;;;;;-143.90;100.00;55125.13;3050923;19;19930;-61
2022/06/03 03:29:00;;;;;;;;;;;;;;;-143.90;100.00;55099.31;3049613;19;20367;-61
2022/06/03 03:30:03;;;;;;;;;;;;;;;-143.90;100.00;55146.97;3048151;19;19945;-62
2022/06/03 03:31:23;;;;;;;;;;;;;;;-143.90;100.00;55150.94;3047933;19;19922;-61
2022/06/03 03:32:34;;;;;;;;;;;;;;;-143.90;100.00;55121.16;3050757;19;19946;-62
2022/06/03 03:33:40;;;;;;;;;;;;;;;-143.90;100.00;55158.88;3048731;19;19926;-62
2022/06/03 03:34:57;;;;;;;;;;;;;;;-143.90;100.00;55141.00;3045314;19;20287;-62
2022/06/03 03:36:24;;;;;;;;;;;;;;;-143.90;100.00;55146.97;3047551;19;20384;-62
2022/06/03 03:37:43;;;;;;;;;;;;;;;-143.90;100.00;55150.94;3049695;19;19923;-62
2022/06/03 03:38:50;;;;;;;;;;;;;;;-143.90;100.00;55129.09;3049723;19;19963;-62
2022/06/03 03:39:53;;;;;;;;;;;;;;;-143.90;100.00;55121.16;3047107;19;19950;-61
2022/06/03 03:40:57;;;;;;;;;;;;;;;-143.90;100.00;55137.03;3048512;19;20473;-61
2022/06/03 03:42:04;;;;;;;;;;;;;;;-143.90;100.00;55095.34;3049091;19;20762;-62
2022/06/03 03:43:07;;;;;;;;;;;;;;;-143.90;100.00;55170.78;3046177;19;19960;-62
2022/06/03 03:44:14;;;;;;;;;;;;;;;-143.90;100.00;55146.97;3047143;19;20655;-62
2022/06/03 03:45:34;;;;;;;;;;;;;;;-143.90;100.00;55150.94;3051899;19;19922;-63
2022/06/03 03:46:53;;;;;;;;;;;;;;;-143.90;100.00;55144.97;3049696;19;20442;-61
2022/06/03 03:48:07;;;;;;;;;;;;;;;-143.90;100.00;55154.91;3049188;19;19927;-63
2022/06/03 03:49:08;;;;;;;;;;;;;;;-143.90;100.00;55125.13;3049879;19;19946;-62
2022/06/03 03:50:27;;;;;;;;;;;;;;;-143.90;100.00;55143.00;3048308;19;19942;-62
2022/06/03 03:51:32;;;;;;;;;;;;;;;-143.90;100.00;55131.06;3048810;19;19914;-62
2022/06/03 03:52:35;;;;;;;;;;;;;;;-143.90;100.00;55123.13;3050652;19;19937;-63
2022/06/03 03:53:55;;;;;;;;;;;;;;;-143.90;100.00;55139.03;3049190;19;20510;-62
2022/06/03 03:55:02;;;;;;;;;;;;;;;-143.90;100.00;55143.00;3050008;19;19950;-62
2022/06/03 03:56:21;;;;;;;;;;;;;;;-143.90;100.00;55091.38;3049138;19;20011;-61
2022/06/03 03:57:40;;;;;;;;;;;;;;;-143.90;100.00;55166.81;3050411;19;19922;-62
2022/06/03 03:59:01;;;;;;;;;;;;;;;-143.90;100.00;55131.06;3048817;19;20369;-62
2022/06/03 04:00:21;;;;;;;;;;;;;;;-143.90;100.00;55139.03;3045735;19;19952;-62
2022/06/03 04:01:41;;;;;;;;;;;;;;;-143.90;100.00;55143.00;3045461;19;20297;-60
2022/06/03 04:02:41;;;;;;;;;;;;;;;-143.90;100.00;55139.03;3046780;19;20386;-62
2022/06/03 04:03:48;;;;;;;;;;;;;;;-143.90;100.00;55172.78;3049265;19;19934;-61
2022/06/03 04:04:53;;;;;;;;;;;;;;;-143.90;100.00;55143.00;3048528;19;19922;-63
2022/06/03 04:05:59;;;;;;;;;;;;;;;-143.90;100.00;55107.25;3047419;19;19947;-62
2022/06/03 04:07:05;;;;;;;;;;;;;;;-143.90;100.00;55135.03;3048158;19;20418;-61
2022/06/03 04:08:21;;;;;;;;;;;;;;;-143.90;100.00;55148.94;3046145;19;19922;-62
2022/06/03 04:09:24;;;;;;;;;;;;;;;-143.90;100.00;55164.84;3046405;19;19994;-62
2022/06/03 04:10:28;;;;;;;;;;;;;;;-143.90;100.00;55107.25;3046626;19;20771;-61
2022/06/03 04:11:29;;;;;;;;;;;;;;;-143.90;100.00;55121.16;3046977;19;19926;-62
2022/06/03 04:12:30;;;;;;;;;;;;;;;-143.90;100.00;55123.13;3047193;19;19952;-62
2022/06/03 04:13:37;;;;;;;;;;;;;;;-143.90;100.00;55131.06;3045933;19;20684;-62
2022/06/03 04:14:56;;;;;;;;;;;;;;;-143.90;100.00;55135.03;3046513;19;19926;-62
2022/06/03 04:16:15;;;;;;;;;;;;;;;-143.90;100.00;55135.03;3045797;19;20764;-61
2022/06/03 04:17:25;;;;;;;;;;;;;;;-143.90;100.00;55150.94;3047843;19;19926;-61
2022/06/03 04:18:44;;;;;;;;;;;;;;;-143.90;100.00;55123.13;3047923;19;19915;-60
2022/06/03 04:19:51;;;;;;;;;;;;;;;-143.90;100.00;55129.09;3048944;19;20331;-62
2022/06/03 04:21:09;;;;;;;;;;;;;;;-143.90;100.00;55123.13;3047686;19;19915;-61
2022/06/03 04:22:42;;;;;;;;;;;;;;;-143.90;100.00;55135.03;3047855;19;19939;-62
2022/06/03 04:23:51;;;;;;;;;;;;;;;-143.90;100.00;55097.31;3046034;19;19923;-61
2022/06/03 04:25:04;;;;;;;;;;;;;;;-143.90;100.00;55117.19;3048145;19;19927;-62
2022/06/03 04:26:14;;;;;;;;;;;;;;;-143.90;100.00;55093.34;3050631;19;20050;-61
2022/06/03 04:27:53;;;;;;;;;;;;;;;-143.90;100.00;55095.34;3045795;19;19930;-62
2022/06/03 04:29:05;;;;;;;;;;;;;;;-143.90;100.00;55111.22;3045712;19;19947;-61
2022/06/03 04:30:25;;;;;;;;;;;;;;;-143.90;100.00;55111.22;3044507;19;19922;-60
2022/06/03 04:31:44;;;;;;;;;;;;;;;-143.90;100.00;55095.34;3045329;19;20861;-62
2022/06/03 04:32:51;;;;;;;;;;;;;;;-143.90;100.00;55127.09;3045669;19;19923;-61
2022/06/03 04:33:53;;;;;;;;;;;;;;;-143.90;100.00;55131.06;3042444;19;20559;-62
2022/06/03 04:35:14;;;;;;;;;;;;;;;-143.90;100.00;55135.03;3046867;19;19930;-62
2022/06/03 04:36:15;;;;;;;;;;;;;;;-143.90;100.00;55111.22;3048337;19;19930;-62
2022/06/03 04:37:35;;;;;;;;;;;;;;;-143.90;100.00;55107.25;3046518;19;19918;-61
2022/06/03 04:38:50;;;;;;;;;;;;;;;-143.90;100.00;55107.25;3047780;19;19942;-62
2022/06/03 04:40:21;;;;;;;;;;;;;;;-143.90;100.00;55101.28;3048976;19;19963;-63
2022/06/03 04:41:27;;;;;;;;;;;;;;;-143.90;100.00;55077.47;3044634;19;19926;-63
2022/06/03 04:42:40;;;;;;;;;;;;;;;-143.90;100.00;55119.16;3047573;19;19921;-63
2022/06/03 04:43:50;;;;;;;;;;;;;;;-143.90;100.00;55083.41;3045373;19;19929;-62
2022/06/03 04:45:09;;;;;;;;;;;;;;;-143.90;100.00;55111.22;3047213;19;19915;-63
2022/06/03 04:46:48;;;;;;;;;;;;;;;-143.90;100.00;55071.50;3046928;19;19930;-63
2022/06/03 04:48:08;;;;;;;;;;;;;;;-143.90;100.00;55093.34;3046985;19;19936;-63
2022/06/03 04:49:24;;;;;;;;;;;;;;;-143.90;100.00;55115.19;3045515;19;20485;-63
2022/06/03 04:50:27;;;;;;;;;;;;;;;-143.90;100.00;55103.28;3043993;19;19926;-63
2022/06/03 04:51:31;;;;;;;;;;;;;;;-143.90;100.00;55099.31;3041475;19;19949;-63
2022/06/03 04:52:37;;;;;;;;;;;;;;;-143.90;100.00;55075.47;3045920;19;19918;-63
2022/06/03 04:53:41;;;;;;;;;;;;;;;-143.90;100.00;55093.34;3044065;19;19923;-63
2022/06/03 04:55:00;;;;;;;;;;;;;;;-143.90;100.00;55067.53;3047118;19;20500;-63
2022/06/03 04:56:03;;;;;;;;;;;;;;;-143.90;100.00;55109.22;3048627;19;20003;-63
2022/06/03 04:57:10;;;;;;;;;;;;;;;-143.90;100.00;55071.50;3048232;19;20244;-63
2022/06/03 04:58:30;;;;;;;;;;;;;;;-143.90;100.00;55091.38;3045137;19;19943;-63
2022/06/03 04:59:46;;;;;;;;;;;;;;;-143.90;100.00;55071.50;3047351;19;19930;-62
2022/06/03 05:01:05;;;;;;;;;;;;;;;-143.90;100.00;55109.22;3047505;19;19954;-62
2022/06/03 05:02:14;;;;;;;;;;;;;;;-143.90;100.00;55075.47;3046642;19;20494;-62
2022/06/03 05:03:33;;;;;;;;;;;;;;;-143.90;100.00;55075.47;3045263;19;19915;-62
2022/06/03 05:04:53;;;;;;;;;;;;;;;-143.90;100.00;55071.50;3046682;19;19938;-62
2022/06/03 05:06:10;;;;;;;;;;;;;;;-143.90;100.00;55067.53;3048812;19;20008;-62
2022/06/03 05:07:26;;;;;;;;;;;;;;;-143.90;100.00;55063.56;3048143;19;19922;-61
2022/06/03 05:08:54;;;;;;;;;;;;;;;-143.90;100.00;55089.38;3048252;19;19915;-62
2022/06/03 05:10:00;;;;;;;;;;;;;;;-143.90;100.00;55069.53;3045873;19;19938;-62
2022/06/03 05:11:04;;;;;;;;;;;;;;;-143.90;100.00;55099.31;3047371;19;20039;-62
2022/06/03 05:12:16;;;;;;;;;;;;;;;-143.90;100.00;55095.34;3048732;19;20008;-61
2022/06/03 05:13:35;;;;;;;;;;;;;;;-143.90;100.00;55071.50;3047434;19;21761;-62
2022/06/03 05:14:44;;;;;;;;;;;;;;;-143.90;100.00;55111.22;3046704;19;19918;-61
2022/06/03 05:15:57;;;;;;;;;;;;;;;-143.90;100.00;55063.56;3048326;19;20364;-62
2022/06/03 05:17:15;;;;;;;;;;;;;;;-143.90;99.62;55065.56;3047890;19;19923;-62
2022/06/03 05:18:19;;;;;;;;;;;;;;;-143.90;99.18;55059.59;3045873;19;19922;-62
2022/06/03 05:19:35;;;;;;;;;;;;;;;-143.90;98.88;55069.53;3045684;19;19927;-62
2022/06/03 05:20:54;;;;;;;;;;;;;;;-143.90;96.70;55099.31;3047379;19;19918;-62
2022/06/03 05:22:13;;;;;;;;;;;;;;;-143.90;96.59;55089.38;3046502;19;20265;-62
2022/06/03 05:23:19;;;;;;;;;;;;;;;-143.90;96.92;55035.78;3048989;19;20279;-63
2022/06/03 05:24:39;;;;;;;;;;;;;;;-143.90;97.44;55119.16;3044021;19;20469;-62
2022/06/03 05:25:49;;;;;;;;;;;;;;;-143.90;96.71;55000.03;3046601;19;19922;-63
2022/06/03 05:27:04;;;;;;;;;;;;;;;-143.90;95.29;55043.72;3047437;19;20300;-63
2022/06/03 05:28:24;;;;;;;;;;;;;;;-143.90;94.56;55047.69;3046725;19;20021;-61
2022/06/03 05:29:29;;;;;;;;;;;;;;;-143.90;93.76;55063.56;3046386;19;20275;-63
2022/06/03 05:30:32;;;;;;;;;;;;;;;-143.90;94.40;55083.41;3047275;19;20274;-63
2022/06/03 05:31:52;;;;;;;;;;;;;;;-143.90;94.08;55059.59;3047435;19;19919;-63
2022/06/03 05:33:05;;;;;;;;;;;;;;;-143.90;94.08;55061.59;3047837;19;19929;-63
2022/06/03 05:34:05;;;;;;;;;;;;;;;-143.90;93.04;55051.66;3048312;19;19990;-63
2022/06/03 05:35:15;;;;;;;;;;;;;;;-143.90;92.22;55059.59;3047674;19;19915;-62
2022/06/03 05:36:16;;;;;;;;;;;;;;;-143.90;90.05;55049.66;3048085;19;20529;-64
2022/06/03 05:37:17;;;;;;;;;;;;;;;-143.90;89.06;55073.50;3046907;19;19923;-63
2022/06/03 05:38:18;;;;;;;;;;;;;;;-143.90;89.67;55057.59;3045775;19;19919;-63
2022/06/03 05:39:37;;;;;;;;;;;;;;;-143.90;89.87;55039.75;3046514;19;19954;-63
2022/06/03 05:40:38;;;;;;;;;;;;;;;-143.90;87.14;55039.75;3045676;19;19918;-62
2022/06/03 05:43:35;;;;;;;;;;;;;;;-143.90;85.93;55029.81;3048146;19;20926;-63
2022/06/03 05:44:45;;;;;;;;;;;;;;;-143.90;85.96;55059.59;3049659;19;19922;-63
2022/06/03 05:45:51;;;;;;;;;;;;;;;-143.90;86.41;55039.75;3047719;19;19922;-63
2022/06/03 05:47:05;;;;;;;;;;;;;;;-143.90;85.35;55037.75;3047274;19;20015;-63
2022/06/03 05:48:06;;;;;;;;;;;;;;;-143.90;84.43;55051.66;3046234;19;19923;-64
2022/06/03 05:49:16;;;;;;;;;;;;;;;-143.90;84.69;55025.84;3047273;19;19925;-64
2022/06/03 05:50:28;;;;;;;;;;;;;;;-143.90;83.72;55073.50;3046585;19;20049;-64
2022/06/03 05:51:48;;;;;;;;;;;;;;;-143.90;84.16;55049.66;3046266;19;20513;-63
2022/06/03 05:52:54;;;;;;;;;;;;;;;-143.90;84.56;55087.41;3043821;19;19919;-63
2022/06/03 05:53:55;;;;;;;;;;;;;;;-143.90;83.80;55051.66;3049237;19;19997;-63
2022/06/03 05:55:07;;;;;;;;;;;;;;;-143.90;83.87;55039.75;3044836;19;19918;-63
2022/06/03 05:56:14;;;;;;;;;;;;;;;-143.90;84.09;55079.44;3047624;19;20268;-63
2022/06/03 05:57:20;;;;;;;;;;;;;;;-143.90;84.62;55069.53;3046831;19;20677;-63